sensor_id;sensor_type;location;lat;lon;timestamp;pressure;altitude;pressure_sealevel;temperature;humidity
10176;BME280;18221;38.704;0.152;2023-04-28T00:38:26;98907.94;;;21.45;54.92
10176;BME280;18221;38.704;0.152;2023-04-28T00:40:56;98911.31;;;21.21;55.84
10176;BME280;18221;38.704;0.152;2023-04-28T00:43:25;98902.97;;;21.22;55.90
10176;BME280;18221;38.704;0.152;2023-04-28T00:45:56;98904.25;;;21.07;56.43
10176;BME280;18221;38.704;0.152;2023-04-28T00:48:26;98902.78;;;21.37;55.74
10176;BME280;18221;38.704;0.152;2023-04-28T00:51:12;98898.16;;;21.44;55.27
10176;BME280;18221;38.704;0.152;2023-04-28T00:53:43;98903.38;;;21.45;55.11
10176;BME280;18221;38.704;0.152;2023-04-28T00:56:12;98892.81;;;21.37;55.09
10176;BME280;18221;38.704;0.152;2023-04-28T00:58:41;98888.69;;;21.09;55.65
10176;BME280;18221;38.704;0.152;2023-04-28T01:01:11;98888.69;;;21.09;55.81
10176;BME280;18221;38.704;0.152;2023-04-28T01:03:40;98881.81;;;21.13;55.82
10176;BME280;18221;38.704;0.152;2023-04-28T01:06:10;98892.63;;;20.93;55.98
10176;BME280;18221;38.704;0.152;2023-04-28T01:08:42;98885.59;;;21.12;56.00
10176;BME280;18221;38.704;0.152;2023-04-28T01:11:14;98881.41;;;21.09;55.86
10176;BME280;18221;38.704;0.152;2023-04-28T01:13:43;98885.97;;;20.96;56.43
10176;BME280;18221;38.704;0.152;2023-04-28T01:16:12;98892.63;;;20.93;56.41
10176;BME280;18221;38.704;0.152;2023-04-28T01:18:46;98888.47;;;20.77;56.88
10176;BME280;18221;38.704;0.152;2023-04-28T01:21:25;98885.97;;;20.69;57.10
10176;BME280;18221;38.704;0.152;2023-04-28T01:23:58;98893.88;;;20.77;56.72
10176;BME280;18221;38.704;0.152;2023-04-28T01:26:27;98881.81;;;20.93;56.53
10176;BME280;18221;38.704;0.152;2023-04-28T01:28:55;98878.25;;;20.99;56.10
10176;BME280;18221;38.704;0.152;2023-04-28T01:31:24;98887.63;;;21.03;55.93
10176;BME280;18221;38.704;0.152;2023-04-28T01:33:53;98884.31;;;20.88;56.34
10176;BME280;18221;38.704;0.152;2023-04-28T01:36:22;98883.06;;;20.97;55.93
10176;BME280;18221;38.704;0.152;2023-04-28T01:38:51;98878.28;;;20.92;56.08
10176;BME280;18221;38.704;0.152;2023-04-28T01:41:33;98887.63;;;20.77;56.45
10176;BME280;18221;38.704;0.152;2023-04-28T01:44:05;98881.41;;;20.89;56.23
10176;BME280;18221;38.704;0.152;2023-04-28T01:46:34;98876.81;;;20.70;56.53
10176;BME280;18221;38.704;0.152;2023-04-28T01:49:02;98878.09;;;20.61;56.68
10176;BME280;18221;38.704;0.152;2023-04-28T01:51:31;98874.97;;;20.77;56.15
10176;BME280;18221;38.704;0.152;2023-04-28T01:54:00;98880.16;;;20.85;55.72
10176;BME280;18221;38.704;0.152;2023-04-28T01:56:28;98874.75;;;20.79;55.65
10176;BME280;18221;38.704;0.152;2023-04-28T01:58:58;98876.00;;;20.89;55.23
10176;BME280;18221;38.704;0.152;2023-04-28T02:01:27;98869.78;;;21.09;54.46
10176;BME280;18221;38.704;0.152;2023-04-28T02:03:55;98867.69;;;20.84;54.74
10176;BME280;18221;38.704;0.152;2023-04-28T02:06:25;98873.72;;;20.93;54.44
10176;BME280;18221;38.704;0.152;2023-04-28T02:08:54;98871.66;;;20.95;53.80
10176;BME280;18221;38.704;0.152;2023-04-28T02:11:23;98870.59;;;21.03;53.69
10176;BME280;18221;38.704;0.152;2023-04-28T02:13:51;98881.00;;;20.79;54.50
10176;BME280;18221;38.704;0.152;2023-04-28T02:16:21;98871.63;;;20.49;55.84
10176;BME280;18221;38.704;0.152;2023-04-28T02:19:01;98874.56;;;20.87;55.06
10176;BME280;18221;38.704;0.152;2023-04-28T02:21:29;98874.31;;;20.62;55.14
10176;BME280;18221;38.704;0.152;2023-04-28T02:23:58;98869.78;;;20.89;54.59
10176;BME280;18221;38.704;0.152;2023-04-28T02:26:27;98872.69;;;21.01;53.64
10176;BME280;18221;38.704;0.152;2023-04-28T02:28:56;98872.69;;;21.07;53.09
10176;BME280;18221;38.704;0.152;2023-04-28T02:31:28;98875.41;;;21.14;52.39
10176;BME280;18221;38.704;0.152;2023-04-28T02:33:58;98877.22;;;21.20;52.12
10176;BME280;18221;38.704;0.152;2023-04-28T02:36:27;98875.16;;;21.15;52.27
10176;BME280;18221;38.704;0.152;2023-04-28T02:39:00;98875.56;;;21.25;52.14
10176;BME280;18221;38.704;0.152;2023-04-28T02:41:31;98868.50;;;21.31;51.44
10176;BME280;18221;38.704;0.152;2023-04-28T02:44:00;98871.19;;;21.37;51.02
10176;BME280;18221;38.704;0.152;2023-04-28T02:46:31;98868.44;;;21.44;50.63
10176;BME280;18221;38.704;0.152;2023-04-28T02:49:00;98871.97;;;21.51;49.82
10176;BME280;18221;38.704;0.152;2023-04-28T02:51:28;98869.25;;;21.51;49.14
10176;BME280;18221;38.704;0.152;2023-04-28T02:53:57;98877.78;;;21.54;48.54
10176;BME280;18221;38.704;0.152;2023-04-28T02:56:29;98870.50;;;21.55;48.11
10176;BME280;18221;38.704;0.152;2023-04-28T02:58:58;98878.75;;;21.73;47.73
10176;BME280;18221;38.704;0.152;2023-04-28T03:01:27;98876.66;;;21.75;47.39
10176;BME280;18221;38.704;0.152;2023-04-28T03:03:58;98877.50;;;21.76;47.45
10176;BME280;18221;38.704;0.152;2023-04-28T03:06:27;98879.56;;;21.80;46.72
10176;BME280;18221;38.704;0.152;2023-04-28T03:08:55;98878.50;;;21.88;46.04
10176;BME280;18221;38.704;0.152;2023-04-28T03:11:24;98879.94;;;21.97;46.21
10176;BME280;18221;38.704;0.152;2023-04-28T03:13:52;98889.50;;;21.99;46.63
10176;BME280;18221;38.704;0.152;2023-04-28T03:16:22;98880.13;;;21.95;46.81
10176;BME280;18221;38.704;0.152;2023-04-28T03:18:51;98881.81;;;21.83;47.10
10176;BME280;18221;38.704;0.152;2023-04-28T03:21:22;98879.56;;;21.87;46.91
10176;BME280;18221;38.704;0.152;2023-04-28T03:23:52;98873.56;;;21.72;46.17
10176;BME280;18221;38.704;0.152;2023-04-28T03:26:21;98870.03;;;21.71;45.46
10176;BME280;18221;38.704;0.152;2023-04-28T03:28:49;98880.44;;;21.68;44.65
10176;BME280;18221;38.704;0.152;2023-04-28T03:31:18;98877.09;;;21.72;44.42
10176;BME280;18221;38.704;0.152;2023-04-28T03:33:47;98874.16;;;21.80;43.73
10176;BME280;18221;38.704;0.152;2023-04-28T03:36:15;98872.91;;;21.89;42.99
10176;BME280;18221;38.704;0.152;2023-04-28T03:38:46;98880.34;;;21.94;42.49
10176;BME280;18221;38.704;0.152;2023-04-28T03:41:14;98877.44;;;21.95;41.38
10176;BME280;18221;38.704;0.152;2023-04-28T03:43:43;98877.47;;;21.89;40.96
10176;BME280;18221;38.704;0.152;2023-04-28T03:46:13;98871.84;;;21.77;41.19
10176;BME280;18221;38.704;0.152;2023-04-28T03:48:42;98873.72;;;21.83;41.16
10176;BME280;18221;38.704;0.152;2023-04-28T03:51:12;98870.97;;;21.96;40.48
10176;BME280;18221;38.704;0.152;2023-04-28T03:53:40;98870.97;;;22.03;39.56
10176;BME280;18221;38.704;0.152;2023-04-28T03:56:11;98879.03;;;22.09;38.91
10176;BME280;18221;38.704;0.152;2023-04-28T03:58:42;98876.81;;;21.93;40.04
10176;BME280;18221;38.704;0.152;2023-04-28T04:01:10;98863.22;;;22.06;40.54
10176;BME280;18221;38.704;0.152;2023-04-28T04:03:39;98871.78;;;22.03;39.24
10176;BME280;18221;38.704;0.152;2023-04-28T04:06:08;98870.31;;;22.01;38.08
10176;BME280;18221;38.704;0.152;2023-04-28T04:08:37;98869.47;;;22.07;37.37
10176;BME280;18221;38.704;0.152;2023-04-28T04:11:06;98873.06;;;22.32;37.37
10176;BME280;18221;38.704;0.152;2023-04-28T04:13:37;98874.81;;;22.20;38.48
10176;BME280;18221;38.704;0.152;2023-04-28T04:16:06;98870.84;;;22.23;38.75
10176;BME280;18221;38.704;0.152;2023-04-28T04:18:35;98866.09;;;22.18;37.90
10176;BME280;18221;38.704;0.152;2023-04-28T04:21:04;98871.84;;;22.28;37.41
10176;BME280;18221;38.704;0.152;2023-04-28T04:23:33;98876.03;;;22.24;37.87
10176;BME280;18221;38.704;0.152;2023-04-28T04:26:02;98877.63;;;22.32;38.64
10176;BME280;18221;38.704;0.152;2023-04-28T04:28:31;98883.53;;;22.22;39.10
10176;BME280;18221;38.704;0.152;2023-04-28T04:31:02;98877.63;;;22.32;38.97
10176;BME280;18221;38.704;0.152;2023-04-28T04:33:31;98880.44;;;22.19;39.06
10176;BME280;18221;38.704;0.152;2023-04-28T04:36:01;98882.75;;;22.15;38.74
10176;BME280;18221;38.704;0.152;2023-04-28T04:38:30;98874.31;;;21.85;39.92
10176;BME280;18221;38.704;0.152;2023-04-28T04:40:59;98880.19;;;21.89;40.52
10176;BME280;18221;38.704;0.152;2023-04-28T04:43:27;98883.91;;;21.94;40.93
10176;BME280;18221;38.704;0.152;2023-04-28T04:45:57;98882.81;;;22.02;40.41
10176;BME280;18221;38.704;0.152;2023-04-28T04:48:28;98875.81;;;21.81;39.64
10176;BME280;18221;38.704;0.152;2023-04-28T04:50:57;98873.31;;;21.86;39.62
10176;BME280;18221;38.704;0.152;2023-04-28T04:53:26;98881.19;;;21.94;39.78
10176;BME280;18221;38.704;0.152;2023-04-28T04:55:54;98881.69;;;21.65;41.30
10176;BME280;18221;38.704;0.152;2023-04-28T04:58:23;98893.81;;;21.43;43.98
10176;BME280;18221;38.704;0.152;2023-04-28T05:00:51;98895.06;;;21.47;45.85
10176;BME280;18221;38.704;0.152;2023-04-28T05:03:20;98892.56;;;21.45;46.76
10176;BME280;18221;38.704;0.152;2023-04-28T05:05:51;98893.84;;;21.23;48.29
10176;BME280;18221;38.704;0.152;2023-04-28T05:08:20;98902.56;;;21.06;49.37
10176;BME280;18221;38.704;0.152;2023-04-28T05:10:49;98908.81;;;20.86;50.46
10176;BME280;18221;38.704;0.152;2023-04-28T05:13:18;98907.97;;;20.92;51.22
10176;BME280;18221;38.704;0.152;2023-04-28T05:15:47;98910.06;;;20.90;52.58
10176;BME280;18221;38.704;0.152;2023-04-28T05:18:16;98900.50;;;20.75;52.62
10176;BME280;18221;38.704;0.152;2023-04-28T05:20:46;98900.50;;;20.94;52.31
10176;BME280;18221;38.704;0.152;2023-04-28T05:23:16;98908.16;;;20.91;51.78
10176;BME280;18221;38.704;0.152;2023-04-28T05:25:46;98910.06;;;20.64;53.16
10176;BME280;18221;38.704;0.152;2023-04-28T05:28:14;98917.53;;;20.69;53.56
10176;BME280;18221;38.704;0.152;2023-04-28T05:30:43;98912.97;;;20.82;53.94
10176;BME280;18221;38.704;0.152;2023-04-28T05:33:12;98911.28;;;20.62;54.43
10176;BME280;18221;38.704;0.152;2023-04-28T05:35:41;98909.66;;;20.80;54.07
10176;BME280;18221;38.704;0.152;2023-04-28T05:38:10;98925.38;;;20.51;55.54
10176;BME280;18221;38.704;0.152;2023-04-28T05:40:41;98915.84;;;20.48;56.00
10176;BME280;18221;38.704;0.152;2023-04-28T05:43:10;98921.41;;;20.47;54.76
10176;BME280;18221;38.704;0.152;2023-04-28T05:45:38;98922.50;;;20.59;54.32
10176;BME280;18221;38.704;0.152;2023-04-28T05:48:10;98927.88;;;20.59;53.50
10176;BME280;18221;38.704;0.152;2023-04-28T05:50:40;98925.22;;;20.72;53.35
10176;BME280;18221;38.704;0.152;2023-04-28T05:53:11;98927.47;;;20.68;52.47
10176;BME280;18221;38.704;0.152;2023-04-28T05:55:43;98929.34;;;20.81;51.95
10176;BME280;18221;38.704;0.152;2023-04-28T05:58:13;98932.91;;;21.01;51.20
10176;BME280;18221;38.704;0.152;2023-04-28T06:00:42;98929.97;;;20.89;51.31
10176;BME280;18221;38.704;0.152;2023-04-28T06:03:14;98933.72;;;20.82;51.42
10176;BME280;18221;38.704;0.152;2023-04-28T06:05:44;98931.22;;;20.74;53.30
10176;BME280;18221;38.704;0.152;2023-04-28T06:08:13;98927.50;;;20.75;52.98
10176;BME280;18221;38.704;0.152;2023-04-28T06:10:44;98931.63;;;20.64;53.72
10176;BME280;18221;38.704;0.152;2023-04-28T06:13:13;98932.88;;;20.68;54.24
10176;BME280;18221;38.704;0.152;2023-04-28T06:15:50;98939.31;;;20.67;54.68
10176;BME280;18221;38.704;0.152;2023-04-28T06:18:19;98936.00;;;20.72;55.00
10176;BME280;18221;38.704;0.152;2023-04-28T06:20:50;98941.13;;;20.41;55.58
10176;BME280;18221;38.704;0.152;2023-04-28T06:23:19;98933.22;;;20.33;54.99
10176;BME280;18221;38.704;0.152;2023-04-28T06:25:49;98943.88;;;20.73;54.49
10176;BME280;18221;38.704;0.152;2023-04-28T06:28:26;98941.78;;;20.62;55.00
10176;BME280;18221;38.704;0.152;2023-04-28T06:31:10;98946.16;;;20.76;55.04
10176;BME280;18221;38.704;0.152;2023-04-28T06:33:39;98936.63;;;20.74;55.43
10176;BME280;18221;38.704;0.152;2023-04-28T06:36:09;98941.00;;;20.88;55.15
10176;BME280;18221;38.704;0.152;2023-04-28T06:38:40;98940.34;;;20.66;55.45
10176;BME280;18221;38.704;0.152;2023-04-28T06:41:11;98938.28;;;20.68;54.81
10176;BME280;18221;38.704;0.152;2023-04-28T06:43:39;98940.78;;;21.03;53.98
10176;BME280;18221;38.704;0.152;2023-04-28T06:49:50;98933.69;;;20.56;55.70
10176;BME280;18221;38.704;0.152;2023-04-28T06:52:24;98941.38;;;20.65;56.21
10176;BME280;18221;38.704;0.152;2023-04-28T06:54:55;98941.34;;;20.52;56.68
10176;BME280;18221;38.704;0.152;2023-04-28T06:57:35;98936.41;;;20.88;56.05
10176;BME280;18221;38.704;0.152;2023-04-28T07:00:06;98936.44;;;20.95;55.83
10176;BME280;18221;38.704;0.152;2023-04-28T07:02:36;98943.69;;;20.88;56.25
10176;BME280;18221;38.704;0.152;2023-04-28T07:05:05;98946.19;;;21.03;55.86
10176;BME280;18221;38.704;0.152;2023-04-28T07:07:37;98941.00;;;20.88;55.98
10176;BME280;18221;38.704;0.152;2023-04-28T07:10:07;98953.03;;;20.85;56.36
10176;BME280;18221;38.704;0.152;2023-04-28T07:12:40;98949.09;;;20.94;56.31
10176;BME280;18221;38.704;0.152;2023-04-28T07:15:14;98949.72;;;21.10;55.86
10176;BME280;18221;38.704;0.152;2023-04-28T07:17:45;98950.59;;;21.17;55.72
10176;BME280;18221;38.704;0.152;2023-04-28T07:28:39;98952.34;;;21.75;53.61
10176;BME280;18221;38.704;0.152;2023-04-28T07:32:20;98956.91;;;22.39;51.77
10176;BME280;18221;38.704;0.152;2023-04-28T07:35:30;98956.53;;;22.98;49.60
10176;BME280;18221;38.704;0.152;2023-04-28T07:38:08;98962.34;;;23.51;48.36
10176;BME280;18221;38.704;0.152;2023-04-28T07:40:53;98954.13;;;24.18;46.80
10176;BME280;18221;38.704;0.152;2023-04-28T07:43:26;98948.22;;;24.21;46.88
10176;BME280;18221;38.704;0.152;2023-04-28T07:45:57;98958.19;;;24.09;46.70
10176;BME280;18221;38.704;0.152;2023-04-28T07:48:25;98957.78;;;24.06;47.45
10176;BME280;18221;38.704;0.152;2023-04-28T07:50:57;98955.41;;;24.16;46.49
10176;BME280;18221;38.704;0.152;2023-04-28T07:53:26;98956.41;;;24.33;46.74
10176;BME280;18221;38.704;0.152;2023-04-28T07:55:56;98963.34;;;24.47;45.80
10176;BME280;18221;38.704;0.152;2023-04-28T07:58:34;98967.41;;;24.68;45.02
10176;BME280;18221;38.704;0.152;2023-04-28T08:01:06;98972.19;;;24.54;45.62
10176;BME280;18221;38.704;0.152;2023-04-28T08:03:36;98967.47;;;24.49;45.48
10176;BME280;18221;38.704;0.152;2023-04-28T08:06:05;98962.84;;;24.20;46.23
10176;BME280;18221;38.704;0.152;2023-04-28T08:08:34;98979.25;;;24.07;46.48
10176;BME280;18221;38.704;0.152;2023-04-28T08:11:03;98973.84;;;23.89;46.95
10176;BME280;18221;38.704;0.152;2023-04-28T08:13:44;98979.75;;;23.43;48.18
10176;BME280;18221;38.704;0.152;2023-04-28T08:16:24;98975.47;;;23.54;47.76
10176;BME280;18221;38.704;0.152;2023-04-28T08:18:53;98970.34;;;23.46;47.78
10176;BME280;18221;38.704;0.152;2023-04-28T08:21:21;98971.38;;;23.45;47.75
10176;BME280;18221;38.704;0.152;2023-04-28T08:23:52;98975.47;;;23.54;47.64
10176;BME280;18221;38.704;0.152;2023-04-28T08:26:27;98977.72;;;23.39;48.19
10176;BME280;18221;38.704;0.152;2023-04-28T08:28:56;98972.06;;;23.40;47.67
10176;BME280;18221;38.704;0.152;2023-04-28T08:31:26;98971.81;;;23.42;47.83
10176;BME280;18221;38.704;0.152;2023-04-28T08:33:58;98979.34;;;23.40;48.26
10176;BME280;18221;38.704;0.152;2023-04-28T08:36:27;98975.84;;;23.32;47.91
10176;BME280;18221;38.704;0.152;2023-04-28T08:38:59;98985.47;;;23.53;47.47
10176;BME280;18221;38.704;0.152;2023-04-28T08:41:41;98972.28;;;23.39;47.89
10176;BME280;18221;38.704;0.152;2023-04-28T08:44:11;98970.47;;;23.26;47.73
10176;BME280;18221;38.704;0.152;2023-04-28T08:46:45;98969.47;;;23.20;47.97
10176;BME280;18221;38.704;0.152;2023-04-28T08:49:17;98981.03;;;23.09;48.17
10176;BME280;18221;38.704;0.152;2023-04-28T08:51:58;98975.50;;;23.22;47.74
10176;BME280;18221;38.704;0.152;2023-04-28T08:54:32;98978.59;;;23.26;47.83
10176;BME280;18221;38.704;0.152;2023-04-28T08:57:07;98984.34;;;23.61;47.43
10176;BME280;18221;38.704;0.152;2023-04-28T08:59:39;98984.59;;;23.59;46.87
10176;BME280;18221;38.704;0.152;2023-04-28T09:02:11;98983.53;;;23.60;47.01
10176;BME280;18221;38.704;0.152;2023-04-28T09:04:39;98982.47;;;23.61;47.05
10176;BME280;18221;38.704;0.152;2023-04-28T09:07:13;98981.66;;;23.97;46.63
10176;BME280;18221;38.704;0.152;2023-04-28T09:09:42;98983.78;;;23.95;46.22
10176;BME280;18221;38.704;0.152;2023-04-28T09:12:11;98979.94;;;24.03;45.73
10176;BME280;18221;38.704;0.152;2023-04-28T09:14:43;98981.59;;;24.04;45.65
10176;BME280;18221;38.704;0.152;2023-04-28T09:17:14;98980.78;;;24.03;45.72
10176;BME280;18221;38.704;0.152;2023-04-28T09:19:44;98987.09;;;23.97;45.99
10176;BME280;18221;38.704;0.152;2023-04-28T09:22:16;98978.06;;;24.03;46.14
10176;BME280;18221;38.704;0.152;2023-04-28T09:24:45;98978.38;;;24.31;45.68
10176;BME280;18221;38.704;0.152;2023-04-28T09:27:14;98971.28;;;24.12;46.06
10176;BME280;18221;38.704;0.152;2023-04-28T09:29:53;98973.94;;;24.19;46.03
10176;BME280;18221;38.704;0.152;2023-04-28T09:32:27;98979.06;;;24.27;45.54
10176;BME280;18221;38.704;0.152;2023-04-28T09:34:56;98970.53;;;24.23;45.57
10176;BME280;18221;38.704;0.152;2023-04-28T09:37:26;98970.09;;;24.26;45.38
10176;BME280;18221;38.704;0.152;2023-04-28T09:40:02;98973.19;;;24.30;45.59
10176;BME280;18221;38.704;0.152;2023-04-28T09:42:37;98967.75;;;24.60;45.05
10176;BME280;18221;38.704;0.152;2023-04-28T09:45:11;98980.41;;;24.66;44.98
10176;BME280;18221;38.704;0.152;2023-04-28T09:47:45;98979.78;;;24.82;44.76
10176;BME280;18221;38.704;0.152;2023-04-28T09:50:17;98983.69;;;24.86;44.28
10176;BME280;18221;38.704;0.152;2023-04-28T09:52:56;98985.28;;;25.05;44.01
10176;BME280;18221;38.704;0.152;2023-04-28T09:55:45;98976.88;;;25.06;44.18
10176;BME280;18221;38.704;0.152;2023-04-28T09:58:16;98971.44;;;25.06;43.88
10176;BME280;18221;38.704;0.152;2023-04-28T10:00:51;98985.28;;;25.05;44.48
10176;BME280;18221;38.704;0.152;2023-04-28T10:03:26;98967.22;;;25.22;43.98
10176;BME280;18221;38.704;0.152;2023-04-28T10:05:59;98978.91;;;25.34;43.39
10176;BME280;18221;38.704;0.152;2023-04-28T10:08:30;98975.28;;;25.40;43.37
10176;BME280;18221;38.704;0.152;2023-04-28T10:11:01;98978.25;;;25.50;43.20
10176;BME280;18221;38.704;0.152;2023-04-28T10:13:30;98980.63;;;25.58;43.41
10176;BME280;18221;38.704;0.152;2023-04-28T10:16:03;98986.91;;;25.59;43.30
10176;BME280;18221;38.704;0.152;2023-04-28T10:18:36;98983.47;;;25.63;42.99
10176;BME280;18221;38.704;0.152;2023-04-28T10:21:08;98976.75;;;25.54;43.19
10176;BME280;18221;38.704;0.152;2023-04-28T10:24:08;98970.81;;;25.69;42.63
10176;BME280;18221;38.704;0.152;2023-04-28T10:27:07;98971.16;;;25.72;42.64
10176;BME280;18221;38.704;0.152;2023-04-28T10:29:36;98969.63;;;25.88;42.18
10176;BME280;18221;38.704;0.152;2023-04-28T10:32:18;98975.78;;;25.72;42.29
10176;BME280;18221;38.704;0.152;2023-04-28T10:34:50;98969.97;;;25.68;42.22
10176;BME280;18221;38.704;0.152;2023-04-28T10:38:03;98972.19;;;26.06;41.95
10176;BME280;18221;38.704;0.152;2023-04-28T10:40:32;98964.97;;;26.12;41.81
10176;BME280;18221;38.704;0.152;2023-04-28T10:43:03;98975.84;;;26.12;41.91
10176;BME280;18221;38.704;0.152;2023-04-28T10:46:12;98972.69;;;26.15;41.11
10176;BME280;18221;38.704;0.152;2023-04-28T10:48:57;98964.97;;;26.12;41.31
10176;BME280;18221;38.704;0.152;2023-04-28T10:51:34;98956.06;;;26.28;41.12
10176;BME280;18221;38.704;0.152;2023-04-28T10:54:19;98953.03;;;26.41;40.79
10176;BME280;18221;38.704;0.152;2023-04-28T10:57:21;98957.19;;;26.44;40.87
10176;BME280;18221;38.704;0.152;2023-04-28T10:59:50;98945.09;;;26.51;40.29
10176;BME280;18221;38.704;0.152;2023-04-28T11:02:40;98956.66;;;26.58;40.27
10176;BME280;18221;38.704;0.152;2023-04-28T11:05:15;98953.63;;;26.71;40.04
10176;BME280;18221;38.704;0.152;2023-04-28T11:08:37;98953.63;;;26.71;39.49
10176;BME280;18221;38.704;0.152;2023-04-28T11:11:21;98952.75;;;26.54;40.03
10176;BME280;18221;38.704;0.152;2023-04-28T11:13:52;98961.78;;;26.71;39.23
10176;BME280;18221;38.704;0.152;2023-04-28T11:16:27;98961.19;;;26.81;38.67
10176;BME280;18221;38.704;0.152;2023-04-28T11:19:04;98954.41;;;26.83;38.27
10176;BME280;18221;38.704;0.152;2023-04-28T11:21:43;98960.22;;;26.75;38.51
10176;BME280;18221;38.704;0.152;2023-04-28T11:24:21;98948.25;;;26.88;38.03
10176;BME280;18221;38.704;0.152;2023-04-28T11:26:52;98951.38;;;26.96;37.37
10176;BME280;18221;38.704;0.152;2023-04-28T11:29:31;98954.25;;;27.07;37.05
10176;BME280;18221;38.704;0.152;2023-04-28T11:32:01;98944.63;;;27.16;36.41
10176;BME280;18221;38.704;0.152;2023-04-28T11:34:30;98945.09;;;27.13;36.64
10176;BME280;18221;38.704;0.152;2023-04-28T11:37:00;98941.47;;;27.24;36.58
10176;BME280;18221;38.704;0.152;2023-04-28T11:39:35;98937.25;;;27.33;35.83
10176;BME280;18221;38.704;0.152;2023-04-28T11:42:10;98937.31;;;27.38;35.92
10176;BME280;18221;38.704;0.152;2023-04-28T11:44:39;98919.28;;;27.70;35.33
10176;BME280;18221;38.704;0.152;2023-04-28T11:47:08;98919.47;;;27.64;35.18
10176;BME280;18221;38.704;0.152;2023-04-28T11:49:45;98918.41;;;27.86;34.36
10176;BME280;18221;38.704;0.152;2023-04-28T11:52:17;98904.34;;;27.94;33.68
10176;BME280;18221;38.704;0.152;2023-04-28T11:54:53;98915.91;;;28.01;34.27
10176;BME280;18221;38.704;0.152;2023-04-28T11:57:23;98910.63;;;27.95;33.80
10176;BME280;18221;38.704;0.152;2023-04-28T11:59:52;98909.56;;;28.17;33.36
10176;BME280;18221;38.704;0.152;2023-04-28T12:02:28;98910.03;;;28.36;33.53
10176;BME280;18221;38.704;0.152;2023-04-28T12:05:04;98902.50;;;28.22;32.67
10176;BME280;18221;38.704;0.152;2023-04-28T12:07:41;98904.81;;;28.83;31.63
10176;BME280;18221;38.704;0.152;2023-04-28T12:10:13;98903.97;;;29.14;31.26
10176;BME280;18221;38.704;0.152;2023-04-28T12:12:46;98906.94;;;29.13;29.97
10176;BME280;18221;38.704;0.152;2023-04-28T12:15:15;98900.38;;;29.46;29.78
10176;BME280;18221;38.704;0.152;2023-04-28T12:17:43;98891.22;;;29.67;28.95
10176;BME280;18221;38.704;0.152;2023-04-28T12:20:33;98896.09;;;29.65;27.05
10176;BME280;18221;38.704;0.152;2023-04-28T12:23:03;98883.44;;;29.95;26.83
10176;BME280;18221;38.704;0.152;2023-04-28T12:25:50;98886.25;;;30.21;25.93
10176;BME280;18221;38.704;0.152;2023-04-28T12:28:19;98885.19;;;30.32;26.10
10176;BME280;18221;38.704;0.152;2023-04-28T12:30:47;98892.31;;;30.33;26.59
10176;BME280;18221;38.704;0.152;2023-04-28T12:33:25;98892.09;;;30.49;26.39
10176;BME280;18221;38.704;0.152;2023-04-28T12:35:56;98883.91;;;30.60;26.02
10176;BME280;18221;38.704;0.152;2023-04-28T12:38:51;98879.47;;;30.43;24.01
10176;BME280;18221;38.704;0.152;2023-04-28T12:41:21;98875.03;;;30.32;23.63
10176;BME280;18221;38.704;0.152;2023-04-28T12:43:50;98879.97;;;30.30;24.07
10176;BME280;18221;38.704;0.152;2023-04-28T12:46:19;98881.69;;;30.41;23.31
10176;BME280;18221;38.704;0.152;2023-04-28T12:48:51;98880.09;;;30.71;21.68
10176;BME280;18221;38.704;0.152;2023-04-28T12:51:23;98879.50;;;30.53;23.95
10176;BME280;18221;38.704;0.152;2023-04-28T12:53:55;98879.25;;;30.60;24.27
10176;BME280;18221;38.704;0.152;2023-04-28T12:56:26;98867.75;;;30.58;24.69
10176;BME280;18221;38.704;0.152;2023-04-28T12:58:55;98882.25;;;30.58;24.47
10176;BME280;18221;38.704;0.152;2023-04-28T13:01:24;98876.50;;;30.65;24.97
10176;BME280;18221;38.704;0.152;2023-04-28T13:03:53;98876.50;;;30.65;23.84
10176;BME280;18221;38.704;0.152;2023-04-28T13:06:21;98873.47;;;30.82;25.13
10176;BME280;18221;38.704;0.152;2023-04-28T13:08:51;98862.00;;;30.95;24.31
10176;BME280;18221;38.704;0.152;2023-04-28T13:11:19;98865.53;;;30.75;24.08
10176;BME280;18221;38.704;0.152;2023-04-28T13:13:51;98861.72;;;30.76;24.37
10176;BME280;18221;38.704;0.152;2023-04-28T13:16:20;98864.19;;;30.78;22.67
10176;BME280;18221;38.704;0.152;2023-04-28T13:18:50;98849.41;;;30.99;23.59
10176;BME280;18221;38.704;0.152;2023-04-28T13:21:18;98857.06;;;30.87;22.94
10176;BME280;18221;38.704;0.152;2023-04-28T13:23:47;98859.22;;;30.85;22.00
10176;BME280;18221;38.704;0.152;2023-04-28T13:26:15;98862.53;;;30.77;21.37
10176;BME280;18221;38.704;0.152;2023-04-28T13:28:45;98860.34;;;30.79;20.53
10176;BME280;18221;38.704;0.152;2023-04-28T13:31:15;98857.31;;;30.75;21.44
10176;BME280;18221;38.704;0.152;2023-04-28T13:33:46;98862.53;;;30.77;21.56
10176;BME280;18221;38.704;0.152;2023-04-28T13:36:15;98856.78;;;30.63;19.29
10176;BME280;18221;38.704;0.152;2023-04-28T13:38:43;98856.78;;;30.68;19.56
10176;BME280;18221;38.704;0.152;2023-04-28T13:41:44;98853.75;;;30.75;18.88
10176;BME280;18221;38.704;0.152;2023-04-28T13:44:12;98855.13;;;30.52;18.59
10176;BME280;18221;38.704;0.152;2023-04-28T13:46:42;98849.38;;;30.69;20.09
10176;BME280;18221;38.704;0.152;2023-04-28T13:49:12;98848.84;;;30.87;17.82
10176;BME280;18221;38.704;0.152;2023-04-28T13:51:40;98840.88;;;30.85;18.03
10176;BME280;18221;38.704;0.152;2023-04-28T13:54:18;98844.44;;;30.76;18.16
10176;BME280;18221;38.704;0.152;2023-04-28T13:56:47;98836.22;;;30.86;17.63
10176;BME280;18221;38.704;0.152;2023-04-28T13:59:16;98831.28;;;30.73;18.34
10176;BME280;18221;38.704;0.152;2023-04-28T14:01:46;98826.88;;;30.62;17.75
10176;BME280;18221;38.704;0.152;2023-04-28T14:04:14;98823.59;;;30.54;16.24
10176;BME280;18221;38.704;0.152;2023-04-28T14:06:45;98822.69;;;30.14;17.45
10176;BME280;18221;38.704;0.152;2023-04-28T14:09:14;98815.25;;;30.04;18.40
10176;BME280;18221;38.704;0.152;2023-04-28T14:11:42;98802.53;;;29.68;19.33
10176;BME280;18221;38.704;0.152;2023-04-28T14:14:11;98795.91;;;29.54;18.61
10176;BME280;18221;38.704;0.152;2023-04-28T14:16:41;98791.50;;;29.48;19.83